sensor_id;sensor_type;location;lat;lon;timestamp;P1;durP1;ratioP1;P2;durP2;ratioP2
59054;SDS011;44845;51.444;7.460;2023-08-12T00:00:46;20.75;;;15.57;;
59054;SDS011;44845;51.444;7.460;2023-08-12T00:03:11;18.35;;;15.60;;
59054;SDS011;44845;51.444;7.460;2023-08-12T00:05:37;19.60;;;15.73;;
59054;SDS011;44845;51.444;7.460;2023-08-12T00:08:04;18.83;;;14.32;;
59054;SDS011;44845;51.444;7.460;2023-08-12T00:10:30;17.95;;;13.88;;
59054;SDS011;44845;51.444;7.460;2023-08-12T00:12:55;17.35;;;14.13;;
59054;SDS011;44845;51.444;7.460;2023-08-12T00:15:21;19.75;;;17.30;;
59054;SDS011;44845;51.444;7.460;2023-08-12T00:17:46;20.50;;;15.38;;
59054;SDS011;44845;51.444;7.460;2023-08-12T00:20:12;21.23;;;16.52;;
59054;SDS011;44845;51.444;7.460;2023-08-12T00:22:37;22.95;;;17.75;;
59054;SDS011;44845;51.444;7.460;2023-08-12T00:25:03;19.48;;;17.13;;
59054;SDS011;44845;51.444;7.460;2023-08-12T00:27:29;20.08;;;16.67;;
59054;SDS011;44845;51.444;7.460;2023-08-12T00:29:54;19.45;;;16.60;;
59054;SDS011;44845;51.444;7.460;2023-08-12T00:32:19;24.67;;;17.80;;
59054;SDS011;44845;51.444;7.460;2023-08-12T00:34:45;22.02;;;17.02;;
59054;SDS011;44845;51.444;7.460;2023-08-12T00:37:10;18.70;;;16.30;;
59054;SDS011;44845;51.444;7.460;2023-08-12T00:39:36;20.73;;;17.23;;
59054;SDS011;44845;51.444;7.460;2023-08-12T00:42:01;23.42;;;17.35;;
59054;SDS011;44845;51.444;7.460;2023-08-12T00:44:26;21.20;;;17.42;;
59054;SDS011;44845;51.444;7.460;2023-08-12T00:46:52;20.98;;;17.52;;
59054;SDS011;44845;51.444;7.460;2023-08-12T00:49:17;22.58;;;17.85;;
59054;SDS011;44845;51.444;7.460;2023-08-12T00:51:43;22.60;;;18.52;;
59054;SDS011;44845;51.444;7.460;2023-08-12T00:54:14;20.42;;;17.23;;
59054;SDS011;44845;51.444;7.460;2023-08-12T00:56:41;20.75;;;16.73;;
59054;SDS011;44845;51.444;7.460;2023-08-12T00:59:08;24.20;;;17.52;;
59054;SDS011;44845;51.444;7.460;2023-08-12T01:01:35;20.92;;;18.20;;
59054;SDS011;44845;51.444;7.460;2023-08-12T01:04:04;22.60;;;18.67;;
59054;SDS011;44845;51.444;7.460;2023-08-12T01:06:30;18.73;;;16.90;;
59054;SDS011;44845;51.444;7.460;2023-08-12T01:08:56;20.90;;;17.88;;
59054;SDS011;44845;51.444;7.460;2023-08-12T01:11:26;19.52;;;17.45;;
59054;SDS011;44845;51.444;7.460;2023-08-12T01:16:53;18.52;;;16.52;;
59054;SDS011;44845;51.444;7.460;2023-08-12T01:21:58;20.85;;;17.73;;
59054;SDS011;44845;51.444;7.460;2023-08-12T01:24:26;18.65;;;16.65;;
59054;SDS011;44845;51.444;7.460;2023-08-12T01:26:52;18.48;;;16.13;;
59054;SDS011;44845;51.444;7.460;2023-08-12T01:29:17;18.02;;;15.98;;
59054;SDS011;44845;51.444;7.460;2023-08-12T01:31:48;19.40;;;16.05;;
59054;SDS011;44845;51.444;7.460;2023-08-12T01:34:32;17.98;;;16.20;;
59054;SDS011;44845;51.444;7.460;2023-08-12T01:37:14;19.63;;;15.68;;
59054;SDS011;44845;51.444;7.460;2023-08-12T01:39:51;19.40;;;15.95;;
59054;SDS011;44845;51.444;7.460;2023-08-12T01:42:19;17.67;;;15.80;;
59054;SDS011;44845;51.444;7.460;2023-08-12T01:44:45;17.50;;;14.00;;
59054;SDS011;44845;51.444;7.460;2023-08-12T01:47:11;18.35;;;15.13;;
59054;SDS011;44845;51.444;7.460;2023-08-12T01:49:36;17.42;;;13.77;;
59054;SDS011;44845;51.444;7.460;2023-08-12T01:52:02;17.27;;;14.00;;
59054;SDS011;44845;51.444;7.460;2023-08-12T01:54:28;16.50;;;13.55;;
59054;SDS011;44845;51.444;7.460;2023-08-12T01:56:58;17.17;;;14.05;;
59054;SDS011;44845;51.444;7.460;2023-08-12T01:59:25;17.25;;;14.32;;
59054;SDS011;44845;51.444;7.460;2023-08-12T02:01:51;17.77;;;13.93;;
59054;SDS011;44845;51.444;7.460;2023-08-12T02:04:16;19.20;;;15.13;;
59054;SDS011;44845;51.444;7.460;2023-08-12T02:06:41;17.77;;;14.32;;
59054;SDS011;44845;51.444;7.460;2023-08-12T02:09:07;15.68;;;13.98;;
59054;SDS011;44845;51.444;7.460;2023-08-12T02:11:32;16.13;;;14.13;;
59054;SDS011;44845;51.444;7.460;2023-08-12T02:13:57;20.42;;;15.35;;
59054;SDS011;44845;51.444;7.460;2023-08-12T02:16:23;17.27;;;15.10;;
59054;SDS011;44845;51.444;7.460;2023-08-12T02:18:48;16.80;;;14.35;;
59054;SDS011;44845;51.444;7.460;2023-08-12T02:21:14;15.65;;;14.02;;
59054;SDS011;44845;51.444;7.460;2023-08-12T02:23:39;14.93;;;13.25;;
59054;SDS011;44845;51.444;7.460;2023-08-12T02:26:04;16.02;;;14.40;;
59054;SDS011;44845;51.444;7.460;2023-08-12T02:28:30;15.52;;;13.93;;
59054;SDS011;44845;51.444;7.460;2023-08-12T02:30:55;16.80;;;13.30;;
59054;SDS011;44845;51.444;7.460;2023-08-12T02:33:21;15.18;;;13.68;;
59054;SDS011;44845;51.444;7.460;2023-08-12T02:35:47;14.73;;;13.15;;
59054;SDS011;44845;51.444;7.460;2023-08-12T02:38:12;17.70;;;13.70;;
59054;SDS011;44845;51.444;7.460;2023-08-12T02:40:38;14.80;;;13.10;;
59054;SDS011;44845;51.444;7.460;2023-08-12T02:43:03;17.55;;;13.80;;
59054;SDS011;44845;51.444;7.460;2023-08-12T02:45:28;16.13;;;12.25;;
59054;SDS011;44845;51.444;7.460;2023-08-12T02:47:54;16.17;;;13.02;;
59054;SDS011;44845;51.444;7.460;2023-08-12T02:50:19;16.83;;;14.50;;
59054;SDS011;44845;51.444;7.460;2023-08-12T02:52:45;16.30;;;13.38;;
59054;SDS011;44845;51.444;7.460;2023-08-12T02:55:10;16.80;;;12.88;;
59054;SDS011;44845;51.444;7.460;2023-08-12T02:57:36;15.95;;;14.25;;
59054;SDS011;44845;51.444;7.460;2023-08-12T03:00:01;15.45;;;12.98;;
59054;SDS011;44845;51.444;7.460;2023-08-12T03:02:29;15.98;;;13.63;;
59054;SDS011;44845;51.444;7.460;2023-08-12T03:04:54;16.52;;;13.55;;
59054;SDS011;44845;51.444;7.460;2023-08-12T03:07:20;14.27;;;12.77;;
59054;SDS011;44845;51.444;7.460;2023-08-12T03:09:46;15.27;;;13.18;;
59054;SDS011;44845;51.444;7.460;2023-08-12T03:12:11;15.85;;;13.27;;
59054;SDS011;44845;51.444;7.460;2023-08-12T03:14:37;18.70;;;14.35;;
59054;SDS011;44845;51.444;7.460;2023-08-12T03:17:02;17.00;;;15.20;;
59054;SDS011;44845;51.444;7.460;2023-08-12T03:19:28;20.48;;;15.70;;
59054;SDS011;44845;51.444;7.460;2023-08-12T03:21:54;18.45;;;16.17;;
59054;SDS011;44845;51.444;7.460;2023-08-12T03:24:19;18.98;;;16.02;;
59054;SDS011;44845;51.444;7.460;2023-08-12T03:26:44;19.02;;;16.73;;
59054;SDS011;44845;51.444;7.460;2023-08-12T03:29:10;16.48;;;14.65;;
59054;SDS011;44845;51.444;7.460;2023-08-12T03:31:35;19.63;;;16.30;;
59054;SDS011;44845;51.444;7.460;2023-08-12T03:34:00;20.65;;;16.55;;
59054;SDS011;44845;51.444;7.460;2023-08-12T03:36:26;17.38;;;14.68;;
59054;SDS011;44845;51.444;7.460;2023-08-12T03:38:51;18.00;;;15.70;;
59054;SDS011;44845;51.444;7.460;2023-08-12T03:41:16;22.88;;;15.45;;
59054;SDS011;44845;51.444;7.460;2023-08-12T03:43:42;19.25;;;14.15;;
59054;SDS011;44845;51.444;7.460;2023-08-12T03:46:07;16.15;;;14.43;;
59054;SDS011;44845;51.444;7.460;2023-08-12T03:48:33;16.73;;;13.98;;
59054;SDS011;44845;51.444;7.460;2023-08-12T03:50:58;15.23;;;13.73;;
59054;SDS011;44845;51.444;7.460;2023-08-12T03:53:23;16.77;;;14.27;;
59054;SDS011;44845;51.444;7.460;2023-08-12T03:55:49;15.77;;;13.80;;
59054;SDS011;44845;51.444;7.460;2023-08-12T03:58:14;17.23;;;14.20;;
59054;SDS011;44845;51.444;7.460;2023-08-12T04:00:40;16.45;;;13.85;;
59054;SDS011;44845;51.444;7.460;2023-08-12T04:03:07;19.05;;;14.15;;
59054;SDS011;44845;51.444;7.460;2023-08-12T04:05:33;14.13;;;12.60;;
59054;SDS011;44845;51.444;7.460;2023-08-12T04:07:58;15.90;;;14.30;;
59054;SDS011;44845;51.444;7.460;2023-08-12T04:10:23;15.25;;;13.57;;
59054;SDS011;44845;51.444;7.460;2023-08-12T04:12:49;16.27;;;14.48;;
59054;SDS011;44845;51.444;7.460;2023-08-12T04:15:14;14.20;;;12.80;;
59054;SDS011;44845;51.444;7.460;2023-08-12T04:17:40;14.13;;;12.63;;
59054;SDS011;44845;51.444;7.460;2023-08-12T04:20:06;12.90;;;11.45;;
59054;SDS011;44845;51.444;7.460;2023-08-12T04:22:32;13.35;;;10.77;;
59054;SDS011;44845;51.444;7.460;2023-08-12T04:24:59;12.20;;;10.93;;
59054;SDS011;44845;51.444;7.460;2023-08-12T04:27:24;16.02;;;10.15;;
59054;SDS011;44845;51.444;7.460;2023-08-12T04:29:49;10.65;;;9.55;;
59054;SDS011;44845;51.444;7.460;2023-08-12T04:32:15;11.57;;;10.38;;
59054;SDS011;44845;51.444;7.460;2023-08-12T04:34:40;13.63;;;10.02;;
59054;SDS011;44845;51.444;7.460;2023-08-12T04:37:05;12.15;;;9.57;;
59054;SDS011;44845;51.444;7.460;2023-08-12T04:39:31;10.32;;;9.25;;
59054;SDS011;44845;51.444;7.460;2023-08-12T04:41:57;10.80;;;8.82;;
59054;SDS011;44845;51.444;7.460;2023-08-12T04:44:22;9.85;;;8.73;;
59054;SDS011;44845;51.444;7.460;2023-08-12T04:46:48;12.02;;;8.60;;
59054;SDS011;44845;51.444;7.460;2023-08-12T04:49:13;9.90;;;7.97;;
59054;SDS011;44845;51.444;7.460;2023-08-12T04:51:39;9.38;;;8.25;;
59054;SDS011;44845;51.444;7.460;2023-08-12T04:54:04;14.30;;;9.02;;
59054;SDS011;44845;51.444;7.460;2023-08-12T04:56:30;10.25;;;8.20;;
59054;SDS011;44845;51.444;7.460;2023-08-12T04:58:55;9.82;;;8.20;;
59054;SDS011;44845;51.444;7.460;2023-08-12T05:01:21;10.50;;;7.78;;
59054;SDS011;44845;51.444;7.460;2023-08-12T05:03:46;8.35;;;7.47;;
59054;SDS011;44845;51.444;7.460;2023-08-12T05:06:12;11.10;;;7.68;;
59054;SDS011;44845;51.444;7.460;2023-08-12T05:08:37;7.40;;;6.68;;
59054;SDS011;44845;51.444;7.460;2023-08-12T05:11:03;8.63;;;7.22;;
59054;SDS011;44845;51.444;7.460;2023-08-12T05:13:28;10.35;;;7.38;;
59054;SDS011;44845;51.444;7.460;2023-08-12T05:15:54;7.68;;;6.68;;
59054;SDS011;44845;51.444;7.460;2023-08-12T05:18:21;10.48;;;6.45;;
59054;SDS011;44845;51.444;7.460;2023-08-12T05:20:48;8.38;;;6.97;;
59054;SDS011;44845;51.444;7.460;2023-08-12T05:23:14;6.65;;;6.05;;
59054;SDS011;44845;51.444;7.460;2023-08-12T05:25:39;7.18;;;5.72;;
59054;SDS011;44845;51.444;7.460;2023-08-12T05:28:05;8.52;;;6.35;;
59054;SDS011;44845;51.444;7.460;2023-08-12T05:30:32;11.02;;;6.75;;
59054;SDS011;44845;51.444;7.460;2023-08-12T05:32:57;6.70;;;6.00;;
59054;SDS011;44845;51.444;7.460;2023-08-12T05:35:23;7.25;;;6.55;;
59054;SDS011;44845;51.444;7.460;2023-08-12T05:37:49;7.05;;;6.45;;
59054;SDS011;44845;51.444;7.460;2023-08-12T05:40:15;7.22;;;6.03;;
59054;SDS011;44845;51.444;7.460;2023-08-12T05:42:40;7.35;;;5.90;;
59054;SDS011;44845;51.444;7.460;2023-08-12T05:45:05;8.40;;;6.40;;
59054;SDS011;44845;51.444;7.460;2023-08-12T05:47:31;6.93;;;6.00;;
59054;SDS011;44845;51.444;7.460;2023-08-12T05:49:57;8.95;;;5.65;;
59054;SDS011;44845;51.444;7.460;2023-08-12T05:52:22;11.45;;;5.75;;
59054;SDS011;44845;51.444;7.460;2023-08-12T05:54:48;10.27;;;6.05;;
59054;SDS011;44845;51.444;7.460;2023-08-12T05:57:13;8.48;;;5.70;;
59054;SDS011;44845;51.444;7.460;2023-08-12T05:59:38;7.85;;;5.97;;
59054;SDS011;44845;51.444;7.460;2023-08-12T06:02:04;6.50;;;4.97;;
59054;SDS011;44845;51.444;7.460;2023-08-12T06:04:29;8.07;;;4.72;;
59054;SDS011;44845;51.444;7.460;2023-08-12T06:06:54;7.53;;;4.78;;
59054;SDS011;44845;51.444;7.460;2023-08-12T06:09:21;12.15;;;5.20;;
59054;SDS011;44845;51.444;7.460;2023-08-12T06:11:46;6.88;;;5.47;;
59054;SDS011;44845;51.444;7.460;2023-08-12T06:14:12;10.90;;;5.13;;
59054;SDS011;44845;51.444;7.460;2023-08-12T06:16:37;8.48;;;4.68;;
59054;SDS011;44845;51.444;7.460;2023-08-12T06:19:03;6.07;;;4.55;;
59054;SDS011;44845;51.444;7.460;2023-08-12T06:21:28;6.70;;;4.60;;
59054;SDS011;44845;51.444;7.460;2023-08-12T06:23:54;8.55;;;4.88;;
59054;SDS011;44845;51.444;7.460;2023-08-12T06:26:20;7.18;;;4.75;;
59054;SDS011;44845;51.444;7.460;2023-08-12T06:28:45;6.53;;;4.40;;
59054;SDS011;44845;51.444;7.460;2023-08-12T06:31:11;7.35;;;4.47;;
59054;SDS011;44845;51.444;7.460;2023-08-12T06:33:36;8.32;;;4.53;;
59054;SDS011;44845;51.444;7.460;2023-08-12T06:36:02;8.30;;;4.32;;
59054;SDS011;44845;51.444;7.460;2023-08-12T06:38:28;9.38;;;4.60;;
59054;SDS011;44845;51.444;7.460;2023-08-12T06:40:54;10.13;;;4.82;;
59054;SDS011;44845;51.444;7.460;2023-08-12T06:43:19;7.53;;;4.95;;
59054;SDS011;44845;51.444;7.460;2023-08-12T06:45:45;7.80;;;4.05;;
59054;SDS011;44845;51.444;7.460;2023-08-12T06:48:10;6.97;;;4.40;;
59054;SDS011;44845;51.444;7.460;2023-08-12T06:50:35;7.22;;;3.83;;
59054;SDS011;44845;51.444;7.460;2023-08-12T06:53:01;5.78;;;3.78;;
59054;SDS011;44845;51.444;7.460;2023-08-12T06:55:27;7.80;;;3.45;;
59054;SDS011;44845;51.444;7.460;2023-08-12T06:57:52;6.78;;;3.83;;
59054;SDS011;44845;51.444;7.460;2023-08-12T07:00:17;5.18;;;3.67;;
59054;SDS011;44845;51.444;7.460;2023-08-12T07:02:43;11.90;;;3.95;;
59054;SDS011;44845;51.444;7.460;2023-08-12T07:05:08;5.28;;;3.63;;
59054;SDS011;44845;51.444;7.460;2023-08-12T07:07:34;7.03;;;3.60;;
59054;SDS011;44845;51.444;7.460;2023-08-12T07:09:59;5.05;;;3.60;;
59054;SDS011;44845;51.444;7.460;2023-08-12T07:12:25;4.18;;;3.42;;
59054;SDS011;44845;51.444;7.460;2023-08-12T07:14:50;6.63;;;3.78;;
59054;SDS011;44845;51.444;7.460;2023-08-12T07:17:15;5.00;;;3.78;;
59054;SDS011;44845;51.444;7.460;2023-08-12T07:19:41;6.38;;;3.58;;
59054;SDS011;44845;51.444;7.460;2023-08-12T07:22:06;7.93;;;3.67;;
59054;SDS011;44845;51.444;7.460;2023-08-12T07:24:31;5.25;;;3.85;;
59054;SDS011;44845;51.444;7.460;2023-08-12T07:26:57;14.38;;;4.68;;
59054;SDS011;44845;51.444;7.460;2023-08-12T07:29:22;8.65;;;3.63;;
59054;SDS011;44845;51.444;7.460;2023-08-12T07:31:47;7.10;;;3.10;;
59054;SDS011;44845;51.444;7.460;2023-08-12T07:34:13;4.97;;;3.00;;
59054;SDS011;44845;51.444;7.460;2023-08-12T07:36:39;4.90;;;3.45;;
59054;SDS011;44845;51.444;7.460;2023-08-12T07:39:05;7.80;;;3.63;;
59054;SDS011;44845;51.444;7.460;2023-08-12T07:41:31;5.15;;;3.40;;
59054;SDS011;44845;51.444;7.460;2023-08-12T07:43:56;6.88;;;3.53;;
59054;SDS011;44845;51.444;7.460;2023-08-12T07:46:22;5.90;;;3.22;;
59054;SDS011;44845;51.444;7.460;2023-08-12T07:48:47;6.38;;;3.47;;
59054;SDS011;44845;51.444;7.460;2023-08-12T07:51:13;6.53;;;3.45;;
59054;SDS011;44845;51.444;7.460;2023-08-12T07:53:38;2.92;;;2.63;;
59054;SDS011;44845;51.444;7.460;2023-08-12T07:56:03;4.03;;;3.00;;
59054;SDS011;44845;51.444;7.460;2023-08-12T07:58:29;3.78;;;2.70;;
59054;SDS011;44845;51.444;7.460;2023-08-12T08:00:54;5.00;;;2.85;;
59054;SDS011;44845;51.444;7.460;2023-08-12T08:03:20;4.10;;;2.95;;
59054;SDS011;44845;51.444;7.460;2023-08-12T08:05:45;5.68;;;3.15;;
59054;SDS011;44845;51.444;7.460;2023-08-12T08:08:12;5.18;;;2.65;;
59054;SDS011;44845;51.444;7.460;2023-08-12T08:10:37;2.70;;;2.47;;
59054;SDS011;44845;51.444;7.460;2023-08-12T08:13:03;4.13;;;2.40;;
59054;SDS011;44845;51.444;7.460;2023-08-12T08:15:28;5.28;;;2.45;;
59054;SDS011;44845;51.444;7.460;2023-08-12T08:17:54;7.68;;;2.40;;
59054;SDS011;44845;51.444;7.460;2023-08-12T08:20:19;6.22;;;2.50;;
59054;SDS011;44845;51.444;7.460;2023-08-12T08:22:44;4.03;;;2.33;;
59054;SDS011;44845;51.444;7.460;2023-08-12T08:25:10;8.60;;;2.83;;
59054;SDS011;44845;51.444;7.460;2023-08-12T08:27:35;3.60;;;2.03;;
59054;SDS011;44845;51.444;7.460;2023-08-12T08:30:00;2.65;;;2.42;;
59054;SDS011;44845;51.444;7.460;2023-08-12T08:32:26;3.83;;;2.08;;
59054;SDS011;44845;51.444;7.460;2023-08-12T08:34:51;5.75;;;2.50;;
59054;SDS011;44845;51.444;7.460;2023-08-12T08:37:17;4.22;;;2.20;;
59054;SDS011;44845;51.444;7.460;2023-08-12T08:39:42;8.40;;;2.35;;
59054;SDS011;44845;51.444;7.460;2023-08-12T08:42:07;6.70;;;2.50;;
59054;SDS011;44845;51.444;7.460;2023-08-12T08:44:35;4.65;;;2.47;;
59054;SDS011;44845;51.444;7.460;2023-08-12T08:47:03;6.80;;;2.78;;
59054;SDS011;44845;51.444;7.460;2023-08-12T08:49:31;2.83;;;2.20;;
59054;SDS011;44845;51.444;7.460;2023-08-12T08:51:58;4.72;;;2.60;;
59054;SDS011;44845;51.444;7.460;2023-08-12T08:54:25;3.55;;;2.30;;
59054;SDS011;44845;51.444;7.460;2023-08-12T08:56:50;3.33;;;2.22;;
59054;SDS011;44845;51.444;7.460;2023-08-12T08:59:16;4.45;;;2.13;;
59054;SDS011;44845;51.444;7.460;2023-08-12T09:01:41;3.35;;;2.10;;
59054;SDS011;44845;51.444;7.460;2023-08-12T09:04:11;2.88;;;2.00;;
59054;SDS011;44845;51.444;7.460;2023-08-12T09:06:37;6.47;;;2.08;;
59054;SDS011;44845;51.444;7.460;2023-08-12T09:09:05;9.38;;;2.42;;
59054;SDS011;44845;51.444;7.460;2023-08-12T09:11:35;2.33;;;2.13;;
59054;SDS011;44845;51.444;7.460;2023-08-12T09:14:03;4.78;;;1.98;;
59054;SDS011;44845;51.444;7.460;2023-08-12T09:16:28;4.30;;;1.88;;
59054;SDS011;44845;51.444;7.460;2023-08-12T09:18:55;3.35;;;2.00;;
59054;SDS011;44845;51.444;7.460;2023-08-12T09:21:20;2.63;;;1.60;;
59054;SDS011;44845;51.444;7.460;2023-08-12T09:23:46;4.10;;;1.85;;
59054;SDS011;44845;51.444;7.460;2023-08-12T09:26:16;6.28;;;1.98;;
59054;SDS011;44845;51.444;7.460;2023-08-12T09:28:43;1.88;;;1.77;;
59054;SDS011;44845;51.444;7.460;2023-08-12T09:31:08;2.83;;;2.00;;
59054;SDS011;44845;51.444;7.460;2023-08-12T09:33:47;1.85;;;1.70;;
59054;SDS011;44845;51.444;7.460;2023-08-12T09:36:12;4.28;;;1.83;;
59054;SDS011;44845;51.444;7.460;2023-08-12T09:38:38;4.68;;;1.67;;
59054;SDS011;44845;51.444;7.460;2023-08-12T09:41:03;3.05;;;1.60;;
59054;SDS011;44845;51.444;7.460;2023-08-12T09:43:29;3.53;;;1.90;;
59054;SDS011;44845;51.444;7.460;2023-08-12T09:45:56;1.60;;;1.50;;
59054;SDS011;44845;51.444;7.460;2023-08-12T09:48:25;4.22;;;1.45;;
59054;SDS011;44845;51.444;7.460;2023-08-12T09:50:51;3.53;;;1.40;;
59054;SDS011;44845;51.444;7.460;2023-08-12T09:53:17;3.55;;;1.70;;
59054;SDS011;44845;51.444;7.460;2023-08-12T09:55:43;5.07;;;1.73;;
59054;SDS011;44845;51.444;7.460;2023-08-12T09:58:10;3.78;;;1.58;;
59054;SDS011;44845;51.444;7.460;2023-08-12T10:00:39;2.95;;;1.88;;
59054;SDS011;44845;51.444;7.460;2023-08-12T10:03:06;2.88;;;1.77;;
59054;SDS011;44845;51.444;7.460;2023-08-12T10:05:33;3.97;;;1.30;;
59054;SDS011;44845;51.444;7.460;2023-08-12T10:07:59;2.85;;;1.40;;
59054;SDS011;44845;51.444;7.460;2023-08-12T10:10:28;3.70;;;1.58;;
59054;SDS011;44845;51.444;7.460;2023-08-12T10:12:54;1.80;;;1.42;;
59054;SDS011;44845;51.444;7.460;2023-08-12T10:15:20;2.47;;;1.30;;
59054;SDS011;44845;51.444;7.460;2023-08-12T10:17:46;1.63;;;1.33;;
59054;SDS011;44845;51.444;7.460;2023-08-12T10:20:14;1.90;;;1.13;;
59054;SDS011;44845;51.444;7.460;2023-08-12T10:22:49;1.85;;;1.30;;
59054;SDS011;44845;51.444;7.460;2023-08-12T10:25:15;4.07;;;1.20;;
59054;SDS011;44845;51.444;7.460;2023-08-12T10:27:43;1.25;;;0.95;;
59054;SDS011;44845;51.444;7.460;2023-08-12T10:30:09;7.43;;;1.23;;
59054;SDS011;44845;51.444;7.460;2023-08-12T10:32:34;2.88;;;1.48;;
59054;SDS011;44845;51.444;7.460;2023-08-12T10:35:00;1.20;;;1.10;;
59054;SDS011;44845;51.444;7.460;2023-08-12T10:37:26;4.20;;;1.38;;
59054;SDS011;44845;51.444;7.460;2023-08-12T10:39:55;1.27;;;1.08;;
59054;SDS011;44845;51.444;7.460;2023-08-12T10:43:03;1.67;;;0.90;;
59054;SDS011;44845;51.444;7.460;2023-08-12T10:45:11;1.20;;;1.10;;
59054;SDS011;44845;51.444;7.460;2023-08-12T10:48:23;1.65;;;1.13;;
59054;SDS011;44845;51.444;7.460;2023-08-12T10:50:25;4.78;;;1.13;;
59054;SDS011;44845;51.444;7.460;2023-08-12T10:52:52;3.53;;;1.10;;
59054;SDS011;44845;51.444;7.460;2023-08-12T10:57:54;5.53;;;1.20;;
59054;SDS011;44845;51.444;7.460;2023-08-12T11:00:23;1.75;;;1.00;;
59054;SDS011;44845;51.444;7.460;2023-08-12T11:02:49;1.65;;;1.05;;
59054;SDS011;44845;51.444;7.460;2023-08-12T11:05:16;3.42;;;1.10;;
59054;SDS011;44845;51.444;7.460;2023-08-12T11:10:23;2.58;;;0.90;;
59054;SDS011;44845;51.444;7.460;2023-08-12T11:12:53;2.10;;;1.20;;
59054;SDS011;44845;51.444;7.460;2023-08-12T11:18:03;2.05;;;1.38;;
59054;SDS011;44845;51.444;7.460;2023-08-12T11:20:29;2.65;;;1.08;;
59054;SDS011;44845;51.444;7.460;2023-08-12T11:22:55;2.78;;;1.20;;
59054;SDS011;44845;51.444;7.460;2023-08-12T11:25:23;1.92;;;1.33;;
59054;SDS011;44845;51.444;7.460;2023-08-12T11:27:48;2.08;;;1.27;;
59054;SDS011;44845;51.444;7.460;2023-08-12T11:30:14;2.30;;;1.30;;
59054;SDS011;44845;51.444;7.460;2023-08-12T11:32:42;2.55;;;1.08;;
59054;SDS011;44845;51.444;7.460;2023-08-12T11:35:08;2.03;;;1.30;;
59054;SDS011;44845;51.444;7.460;2023-08-12T11:37:36;1.52;;;1.17;;
59054;SDS011;44845;51.444;7.460;2023-08-12T11:40:02;4.43;;;1.30;;
59054;SDS011;44845;51.444;7.460;2023-08-12T11:42:29;3.75;;;1.10;;
59054;SDS011;44845;51.444;7.460;2023-08-12T11:44:55;3.53;;;1.30;;
59054;SDS011;44845;51.444;7.460;2023-08-12T11:47:20;2.05;;;1.27;;
59054;SDS011;44845;51.444;7.460;2023-08-12T11:49:46;3.35;;;1.65;;
59054;SDS011;44845;51.444;7.460;2023-08-12T11:52:11;3.60;;;1.42;;
59054;SDS011;44845;51.444;7.460;2023-08-12T11:54:37;4.22;;;1.55;;
59054;SDS011;44845;51.444;7.460;2023-08-12T11:57:04;1.92;;;1.70;;
59054;SDS011;44845;51.444;7.460;2023-08-12T11:59:30;2.45;;;1.98;;
59054;SDS011;44845;51.444;7.460;2023-08-12T12:01:55;8.88;;;3.20;;
59054;SDS011;44845;51.444;7.460;2023-08-12T12:04:21;6.68;;;3.10;;
59054;SDS011;44845;51.444;7.460;2023-08-12T12:06:47;5.07;;;2.85;;
59054;SDS011;44845;51.444;7.460;2023-08-12T12:09:15;7.18;;;3.08;;
59054;SDS011;44845;51.444;7.460;2023-08-12T12:11:43;4.97;;;2.40;;
59054;SDS011;44845;51.444;7.460;2023-08-12T12:14:09;3.33;;;2.40;;
59054;SDS011;44845;51.444;7.460;2023-08-12T12:19:14;2.83;;;2.40;;
59054;SDS011;44845;51.444;7.460;2023-08-12T12:21:41;3.08;;;2.17;;
59054;SDS011;44845;51.444;7.460;2023-08-12T12:24:09;4.05;;;2.20;;
59054;SDS011;44845;51.444;7.460;2023-08-12T12:26:35;4.22;;;1.90;;
59054;SDS011;44845;51.444;7.460;2023-08-12T12:29:01;2.25;;;1.58;;
59054;SDS011;44845;51.444;7.460;2023-08-12T12:31:28;2.50;;;1.30;;
59054;SDS011;44845;51.444;7.460;2023-08-12T12:33:54;1.08;;;1.00;;
59054;SDS011;44845;51.444;7.460;2023-08-12T12:36:19;4.57;;;1.00;;
59054;SDS011;44845;51.444;7.460;2023-08-12T12:38:44;2.45;;;1.02;;
59054;SDS011;44845;51.444;7.460;2023-08-12T12:41:10;1.05;;;0.82;;
59054;SDS011;44845;51.444;7.460;2023-08-12T12:43:35;4.18;;;0.98;;
59054;SDS011;44845;51.444;7.460;2023-08-12T12:46:01;1.75;;;1.00;;
59054;SDS011;44845;51.444;7.460;2023-08-12T12:48:26;1.30;;;1.20;;
59054;SDS011;44845;51.444;7.460;2023-08-12T12:50:51;5.45;;;1.25;;
59054;SDS011;44845;51.444;7.460;2023-08-12T12:53:17;1.45;;;1.00;;
59054;SDS011;44845;51.444;7.460;2023-08-12T12:55:42;1.55;;;1.00;;
59054;SDS011;44845;51.444;7.460;2023-08-12T12:58:09;4.60;;;1.15;;
59054;SDS011;44845;51.444;7.460;2023-08-12T13:00:34;2.25;;;0.90;;
59054;SDS011;44845;51.444;7.460;2023-08-12T13:03:00;2.38;;;0.80;;
59054;SDS011;44845;51.444;7.460;2023-08-12T13:05:25;1.00;;;0.90;;
59054;SDS011;44845;51.444;7.460;2023-08-12T13:07:51;2.60;;;1.27;;
59054;SDS011;44845;51.444;7.460;2023-08-12T13:10:16;3.17;;;0.90;;
59054;SDS011;44845;51.444;7.460;2023-08-12T13:12:41;1.83;;;1.10;;
59054;SDS011;44845;51.444;7.460;2023-08-12T13:15:07;7.22;;;0.88;;
59054;SDS011;44845;51.444;7.460;2023-08-12T13:17:32;2.67;;;1.00;;
59054;SDS011;44845;51.444;7.460;2023-08-12T13:19:58;3.55;;;1.00;;
59054;SDS011;44845;51.444;7.460;2023-08-12T13:22:23;0.90;;;0.90;;
59054;SDS011;44845;51.444;7.460;2023-08-12T13:24:48;2.90;;;0.70;;
59054;SDS011;44845;51.444;7.460;2023-08-12T13:27:14;5.93;;;1.00;;
59054;SDS011;44845;51.444;7.460;2023-08-12T13:29:39;1.08;;;0.98;;
59054;SDS011;44845;51.444;7.460;2023-08-12T13:32:05;0.93;;;0.75;;
59054;SDS011;44845;51.444;7.460;2023-08-12T13:34:30;0.50;;;0.50;;
59054;SDS011;44845;51.444;7.460;2023-08-12T13:36:56;1.83;;;0.47;;
59054;SDS011;44845;51.444;7.460;2023-08-12T13:39:21;1.30;;;0.40;;
59054;SDS011;44845;51.444;7.460;2023-08-12T13:41:47;2.95;;;0.60;;
59054;SDS011;44845;51.444;7.460;2023-08-12T13:44:12;1.80;;;0.70;;
59054;SDS011;44845;51.444;7.460;2023-08-12T13:46:38;2.67;;;1.20;;
59054;SDS011;44845;51.444;7.460;2023-08-12T13:49:03;2.90;;;0.90;;
59054;SDS011;44845;51.444;7.460;2023-08-12T13:51:28;4.15;;;1.20;;
59054;SDS011;44845;51.444;7.460;2023-08-12T13:53:55;1.70;;;1.00;;
59054;SDS011;44845;51.444;7.460;2023-08-12T13:56:20;3.85;;;1.10;;
59054;SDS011;44845;51.444;7.460;2023-08-12T13:58:46;1.55;;;1.17;;
59054;SDS011;44845;51.444;7.460;2023-08-12T14:01:11;1.33;;;1.20;;
59054;SDS011;44845;51.444;7.460;2023-08-12T14:03:37;1.60;;;1.50;;
59054;SDS011;44845;51.444;7.460;2023-08-12T14:06:02;3.53;;;1.30;;
59054;SDS011;44845;51.444;7.460;2023-08-12T14:08:28;4.60;;;1.70;;
59054;SDS011;44845;51.444;7.460;2023-08-12T14:10:53;2.20;;;1.70;;
59054;SDS011;44845;51.444;7.460;2023-08-12T14:13:18;4.55;;;1.88;;
59054;SDS011;44845;51.444;7.460;2023-08-12T14:15:44;3.28;;;1.90;;
59054;SDS011;44845;51.444;7.460;2023-08-12T14:18:09;2.42;;;1.98;;
59054;SDS011;44845;51.444;7.460;2023-08-12T14:20:34;3.22;;;2.22;;
59054;SDS011;44845;51.444;7.460;2023-08-12T14:23:00;2.85;;;2.22;;
59054;SDS011;44845;51.444;7.460;2023-08-12T14:25:25;4.97;;;2.65;;
59054;SDS011;44845;51.444;7.460;2023-08-12T14:27:51;12.40;;;4.28;;
59054;SDS011;44845;51.444;7.460;2023-08-12T14:30:18;6.20;;;4.85;;
59054;SDS011;44845;51.444;7.460;2023-08-12T14:32:44;7.82;;;5.93;;
59054;SDS011;44845;51.444;7.460;2023-08-12T14:35:10;8.07;;;7.28;;
59054;SDS011;44845;51.444;7.460;2023-08-12T14:37:35;11.35;;;7.88;;
59054;SDS011;44845;51.444;7.460;2023-08-12T14:40:01;8.02;;;7.30;;
59054;SDS011;44845;51.444;7.460;2023-08-12T14:42:26;10.25;;;6.90;;
59054;SDS011;44845;51.444;7.460;2023-08-12T14:44:51;7.40;;;6.65;;
59054;SDS011;44845;51.444;7.460;2023-08-12T14:47:17;7.90;;;6.45;;